Yur'yev-Pol'skiy, Russia
Current Conditions -  °F | °C
As of 9:00 PM on Sunday 21 Dec 2014 (Local Time) from UUEE Reporting Station
Overcast Overcast  
Wind Chill: 24°   Ceiling: 4000
Heat Index: 34°   Visibility: 6mi
Dew Point: 30°   Wind: 13mph
Humidity: 87%   Direction: 220°SW
Pressure: 29.47"   Gusts: NA
Location:  56.3°N, 39.41°E
Report Text: UUEE 211800Z 22006MPS 9999 OVC040 01/M01 Q0998 7529004525290045 NOSIG
Loading
Personal Weather Stations






























Interactive Weather Map New forecast layout! Learn more

10-Day Weather Forecast

Advertisements
Track Severe Weather on mobile